createdAt,value
2018-12-20T00:01:49.793Z,-0.62
2018-12-20T00:05:53.296Z,-0.62
2018-12-20T00:09:56.851Z,-0.67
2018-12-20T00:14:00.378Z,-0.68
2018-12-20T00:18:05.136Z,-0.66
2018-12-20T00:22:09.006Z,-0.70
2018-12-20T00:26:12.546Z,-0.75
2018-12-20T00:30:16.010Z,-0.73
2018-12-20T00:34:19.445Z,-0.70
2018-12-20T00:38:22.953Z,-0.71
2018-12-20T00:42:32.969Z,-0.71
2018-12-20T00:46:36.407Z,-0.70
2018-12-20T00:50:39.899Z,-0.64
2018-12-20T00:54:43.479Z,-0.62
2018-12-20T00:58:46.951Z,-0.65
2018-12-20T01:02:55.195Z,-0.65
2018-12-20T01:06:55.967Z,-0.65
2018-12-20T01:10:59.480Z,-0.69
2018-12-20T01:15:03.003Z,-0.72
2018-12-20T01:19:06.550Z,-0.70
2018-12-20T01:23:10.221Z,-0.65
2018-12-20T01:27:13.751Z,-0.67
2018-12-20T01:31:17.200Z,-0.67
2018-12-20T01:35:20.667Z,-0.61
2018-12-20T01:39:24.300Z,-0.58
2018-12-20T01:43:27.964Z,-0.59
2018-12-20T01:47:31.538Z,-0.57
2018-12-20T01:51:35.259Z,-0.57
2018-12-20T01:55:38.767Z,-0.54
2018-12-20T01:59:42.327Z,-0.57
2018-12-20T02:03:45.804Z,-0.57
2018-12-20T02:07:49.380Z,-0.55
2018-12-20T02:11:52.875Z,-0.54
2018-12-20T02:15:56.452Z,-0.57
2018-12-20T02:20:00.193Z,-0.59
2018-12-20T02:24:04.522Z,-0.62
2018-12-20T02:28:08.158Z,-0.64
2018-12-20T02:32:11.883Z,-0.63
2018-12-20T02:36:15.425Z,-0.58
2018-12-20T02:40:19.030Z,-0.55
2018-12-20T02:44:22.707Z,-0.62
2018-12-20T02:48:26.359Z,-0.65
2018-12-20T02:52:30.166Z,-0.64
2018-12-20T02:56:33.894Z,-0.69
2018-12-20T03:00:37.403Z,-0.74
2018-12-20T03:04:40.983Z,-0.81
2018-12-20T03:08:44.667Z,-0.79
2018-12-20T03:12:48.641Z,-0.86
2018-12-20T03:16:52.323Z,-0.87
2018-12-20T03:20:55.895Z,-0.91
2018-12-20T03:24:59.594Z,-1.02
2018-12-20T03:29:03.277Z,-1.04
2018-12-20T03:33:07.035Z,-1.07
2018-12-20T03:37:12.340Z,-1.10
2018-12-20T03:41:15.975Z,-1.16
2018-12-20T03:45:19.794Z,-1.18
2018-12-20T03:49:23.556Z,-1.21
2018-12-20T03:53:27.198Z,-1.22
2018-12-20T03:57:30.719Z,-1.20
2018-12-20T04:01:34.261Z,-1.16
2018-12-20T04:05:37.964Z,-1.16
2018-12-20T04:09:41.502Z,-1.16
2018-12-20T04:13:45.967Z,-1.14
2018-12-20T04:17:49.465Z,-1.17
2018-12-20T04:21:53.121Z,-1.20
2018-12-20T04:25:57.013Z,-1.18
2018-12-20T04:30:00.619Z,-1.14
2018-12-20T04:34:04.657Z,-1.12
2018-12-20T04:38:08.128Z,-1.14
2018-12-20T04:42:11.533Z,-1.18
2018-12-20T04:46:15.006Z,-1.19
2018-12-20T04:50:18.548Z,-1.16
2018-12-20T04:54:22.191Z,-1.21
2018-12-20T04:58:25.781Z,-1.23
2018-12-20T05:02:29.400Z,-1.22
2018-12-20T05:06:32.876Z,-1.24
2018-12-20T05:10:36.402Z,-1.26
2018-12-20T05:14:39.998Z,-1.25
2018-12-20T05:18:43.589Z,-1.28
2018-12-20T05:22:47.154Z,-1.27
2018-12-20T05:26:50.717Z,-1.31
2018-12-20T05:30:54.328Z,-1.34
2018-12-20T05:34:58.272Z,-1.41
2018-12-20T05:39:01.737Z,-1.48
2018-12-20T05:43:05.228Z,-1.50
2018-12-20T05:47:08.943Z,-1.49
2018-12-20T05:51:12.459Z,-1.46
2018-12-20T05:55:16.002Z,-1.47
2018-12-20T05:59:19.539Z,-1.40
2018-12-20T06:03:23.100Z,-1.35
2018-12-20T06:07:26.790Z,-1.33
2018-12-20T06:11:30.390Z,-1.32
2018-12-20T06:15:34.521Z,-1.32
2018-12-20T06:19:38.154Z,-1.33
2018-12-20T06:23:41.739Z,-1.35
2018-12-20T06:27:45.202Z,-1.34
2018-12-20T06:31:48.673Z,-1.34
2018-12-20T06:35:52.131Z,-1.40
2018-12-20T06:39:55.703Z,-1.39
2018-12-20T06:44:07.012Z,-1.31
2018-12-20T06:48:04.623Z,-1.27
2018-12-20T06:52:08.119Z,-1.27
2018-12-20T06:56:11.662Z,-1.30
2018-12-20T07:00:15.097Z,-1.29
2018-12-20T07:04:18.680Z,-1.30
2018-12-20T07:08:22.179Z,-1.28
2018-12-20T07:12:25.611Z,-1.29
2018-12-20T07:16:29.607Z,-1.25
2018-12-20T07:20:33.282Z,-1.23
2018-12-20T07:24:37.105Z,-1.18
2018-12-20T07:28:40.613Z,-1.19
2018-12-20T07:32:44.068Z,-1.15
2018-12-20T07:36:47.592Z,-1.11
2018-12-20T07:40:51.124Z,-1.09
2018-12-20T07:44:54.581Z,-1.09
2018-12-20T07:48:58.094Z,-1.10
2018-12-20T07:53:02.307Z,-1.06
2018-12-20T07:57:05.809Z,-1.01
2018-12-20T08:01:09.375Z,-0.98
2018-12-20T08:05:12.822Z,-0.99
2018-12-20T08:09:16.232Z,-0.94
2018-12-20T08:13:19.790Z,-0.96
2018-12-20T08:17:23.301Z,-0.96
2018-12-20T08:21:26.775Z,-0.99
2018-12-20T08:25:30.805Z,-0.95
2018-12-20T08:29:35.145Z,-0.91
2018-12-20T08:33:38.716Z,-0.83
2018-12-20T08:37:42.747Z,-0.72
2018-12-20T08:41:46.205Z,-0.74
2018-12-20T08:45:49.655Z,-0.75
2018-12-20T08:49:53.217Z,-0.79
2018-12-20T08:53:56.871Z,-0.80
2018-12-20T08:58:00.335Z,-0.78
2018-12-20T09:02:03.783Z,-0.79
2018-12-20T09:06:07.254Z,-0.81
2018-12-20T09:10:10.811Z,-0.77
2018-12-20T09:14:16.184Z,-0.75
2018-12-20T09:18:19.940Z,-0.71
2018-12-20T09:22:23.402Z,-0.68
2018-12-20T09:26:26.948Z,-0.65
2018-12-20T09:30:30.946Z,-0.58
2018-12-20T09:34:34.428Z,-0.60
2018-12-20T09:38:38.008Z,-0.61
2018-12-20T09:42:41.486Z,-0.61
2018-12-20T09:46:45.000Z,-0.58
2018-12-20T09:50:48.477Z,-0.53
2018-12-20T09:54:51.932Z,-0.51
2018-12-20T09:58:55.524Z,-0.50
2018-12-20T10:02:59.026Z,-0.44
2018-12-20T10:07:02.517Z,-0.50
2018-12-20T10:11:05.935Z,-0.53
2018-12-20T10:15:09.485Z,-0.53
2018-12-20T10:19:13.704Z,-0.44
2018-12-20T10:23:17.238Z,-0.41
2018-12-20T10:27:20.695Z,-0.41
2018-12-20T10:31:24.165Z,-0.36
2018-12-20T10:35:27.614Z,-0.30
2018-12-20T10:39:31.239Z,-0.30
2018-12-20T10:43:34.720Z,-0.22
2018-12-20T10:47:38.128Z,-0.22
2018-12-20T10:51:41.609Z,-0.17
2018-12-20T10:55:45.151Z,-0.12
2018-12-20T10:59:48.856Z,-0.09
2018-12-20T11:03:56.558Z,-0.03
2018-12-20T11:08:04.172Z,0.07
2018-12-20T11:12:08.655Z,0.15
2018-12-20T11:16:12.083Z,0.14
2018-12-20T11:20:15.546Z,0.16
2018-12-20T11:24:19.035Z,0.19
2018-12-20T11:28:22.540Z,0.17
2018-12-20T11:32:26.075Z,0.25
2018-12-20T11:36:29.554Z,0.22
2018-12-20T11:40:33.103Z,0.15
2018-12-20T11:44:36.853Z,0.11
2018-12-20T11:48:40.339Z,0.09
2018-12-20T11:52:43.798Z,0.07
2018-12-20T11:56:47.274Z,0.06
2018-12-20T12:00:50.735Z,0.07
2018-12-20T12:04:54.265Z,0.09
2018-12-20T12:08:57.884Z,0.17
2018-12-20T12:13:01.539Z,0.20
2018-12-20T12:17:05.198Z,0.17
2018-12-20T12:21:08.870Z,0.12
2018-12-20T12:25:12.581Z,0.06
2018-12-20T12:29:16.218Z,0.03
2018-12-20T12:33:19.812Z,-0.01
2018-12-20T12:37:23.438Z,-0.05
2018-12-20T12:41:27.151Z,-0.08
2018-12-20T12:45:30.866Z,-0.14
2018-12-20T12:49:34.675Z,-0.13
2018-12-20T12:53:38.217Z,-0.11
2018-12-20T12:57:41.669Z,-0.08
2018-12-20T13:01:45.162Z,-0.02
2018-12-20T13:05:48.750Z,0.00
2018-12-20T13:09:52.291Z,-0.03
2018-12-20T13:13:55.829Z,-0.03
2018-12-20T13:17:59.377Z,0.01
2018-12-20T13:22:04.084Z,0.02
2018-12-20T13:26:07.617Z,0.02
2018-12-20T13:30:12.432Z,0.04
2018-12-20T13:34:15.915Z,0.04
2018-12-20T13:38:19.348Z,0.02
2018-12-20T13:42:22.793Z,-0.01
2018-12-20T13:46:26.244Z,-0.04
2018-12-20T13:50:29.704Z,-0.04
2018-12-20T13:54:33.237Z,0.05
2018-12-20T13:58:37.787Z,0.13
2018-12-20T14:02:41.373Z,0.17
2018-12-20T14:06:44.934Z,0.20
2018-12-20T14:10:48.433Z,0.17
2018-12-20T14:14:51.948Z,0.21
2018-12-20T14:18:55.439Z,0.25
2018-12-20T14:22:58.888Z,0.33
2018-12-20T14:27:02.347Z,0.44
2018-12-20T14:31:05.813Z,0.50
2018-12-20T14:35:09.493Z,0.46
2018-12-20T14:39:12.981Z,0.43
2018-12-20T14:43:16.710Z,0.42
2018-12-20T14:47:20.324Z,0.35
2018-12-20T14:51:23.824Z,0.31
2018-12-20T14:55:27.266Z,0.34
2018-12-20T14:59:32.409Z,0.54
2018-12-20T15:03:36.161Z,0.48
2018-12-20T15:07:39.747Z,0.46
2018-12-20T15:11:43.268Z,0.45
2018-12-20T15:15:46.741Z,0.45
2018-12-20T15:19:50.543Z,0.42
2018-12-20T15:23:54.621Z,0.29
2018-12-20T15:27:58.352Z,0.28
2018-12-20T15:32:01.822Z,0.28
2018-12-20T15:36:05.405Z,0.23
2018-12-20T15:40:09.637Z,0.17
2018-12-20T15:44:13.108Z,0.14
2018-12-20T15:48:17.002Z,0.12
2018-12-20T15:52:20.760Z,0.12
2018-12-20T15:56:24.324Z,0.16
2018-12-20T16:00:27.771Z,0.25
2018-12-20T16:04:31.249Z,0.31
2018-12-20T16:08:34.782Z,0.31
2018-12-20T16:12:38.352Z,0.18
2018-12-20T16:16:42.055Z,0.20
2018-12-20T16:20:45.815Z,0.16
2018-12-20T16:24:49.294Z,0.10
2018-12-20T16:28:53.057Z,-0.02
2018-12-20T16:32:56.532Z,-0.08
2018-12-20T16:36:59.947Z,-0.08
2018-12-20T16:41:04.521Z,-0.05
2018-12-20T16:45:08.767Z,0.01
2018-12-20T16:49:13.766Z,0.04
2018-12-20T16:53:17.632Z,0.03
2018-12-20T16:57:21.129Z,-0.02
2018-12-20T17:01:24.735Z,-0.07
2018-12-20T17:05:28.553Z,-0.05
2018-12-20T17:09:32.068Z,-0.06
2018-12-20T17:13:35.777Z,-0.02
2018-12-20T17:17:39.686Z,-0.05
2018-12-20T17:21:43.614Z,-0.07
2018-12-20T17:25:47.083Z,-0.05
2018-12-20T17:29:50.548Z,0.02
2018-12-20T17:33:54.163Z,-0.01
2018-12-20T17:37:57.612Z,0.02
2018-12-20T17:42:01.087Z,0.04
2018-12-20T17:46:04.596Z,0.02
2018-12-20T17:50:08.736Z,0.05
2018-12-20T17:54:12.264Z,0.02
2018-12-20T17:58:18.838Z,-0.03
2018-12-20T18:02:22.992Z,-0.06
2018-12-20T18:06:26.701Z,0.03
2018-12-20T18:10:30.367Z,0.13
2018-12-20T18:14:34.566Z,0.17
2018-12-20T18:18:38.101Z,0.17
2018-12-20T18:22:41.585Z,0.22
2018-12-20T18:26:45.290Z,0.25
2018-12-20T18:30:49.193Z,0.23
2018-12-20T18:34:52.636Z,0.18
2018-12-20T18:38:56.462Z,0.21
2018-12-20T18:43:01.767Z,0.18
2018-12-20T18:47:05.609Z,0.16
2018-12-20T18:51:09.109Z,0.10
2018-12-20T18:55:12.626Z,0.04
2018-12-20T18:59:16.229Z,0.03
2018-12-20T19:03:19.835Z,0.06
2018-12-20T19:07:23.512Z,0.17
2018-12-20T19:11:27.003Z,0.27
2018-12-20T19:15:30.468Z,0.32
2018-12-20T19:19:34.148Z,0.35
2018-12-20T19:23:37.619Z,0.40
2018-12-20T19:27:41.272Z,0.42
2018-12-20T19:31:44.961Z,0.48
2018-12-20T19:35:48.474Z,0.47
2018-12-20T19:39:56.326Z,0.43
2018-12-20T19:44:00.064Z,0.36
2018-12-20T19:48:03.721Z,0.36
2018-12-20T19:52:07.284Z,0.31
2018-12-20T19:56:10.785Z,0.36
2018-12-20T20:00:16.248Z,0.41
2018-12-20T20:04:19.759Z,0.46
2018-12-20T20:08:23.328Z,0.43
2018-12-20T20:12:26.799Z,0.45
2018-12-20T20:16:30.305Z,0.48
2018-12-20T20:20:33.911Z,0.49
2018-12-20T20:24:37.392Z,0.53
2018-12-20T20:28:40.839Z,0.52
2018-12-20T20:32:44.378Z,0.51
2018-12-20T20:36:48.065Z,0.51
2018-12-20T20:40:51.745Z,0.53
2018-12-20T20:44:55.253Z,0.57
2018-12-20T20:48:58.832Z,0.51
2018-12-20T20:53:02.397Z,0.46
2018-12-20T20:57:05.940Z,0.54
2018-12-20T21:01:09.493Z,0.53
2018-12-20T21:05:13.326Z,0.52
2018-12-20T21:09:16.872Z,0.50
2018-12-20T21:13:20.350Z,0.39
2018-12-20T21:17:23.958Z,0.35
2018-12-20T21:21:27.716Z,0.21
2018-12-20T21:25:31.335Z,0.12
2018-12-20T21:29:35.123Z,0.07
2018-12-20T21:33:38.999Z,0.06
2018-12-20T21:37:42.433Z,0.11
2018-12-20T21:41:45.940Z,0.16
2018-12-20T21:45:49.425Z,0.26
2018-12-20T21:49:52.856Z,0.30
2018-12-20T21:53:56.371Z,0.21
2018-12-20T21:57:59.848Z,0.21
2018-12-20T22:02:03.709Z,0.20
2018-12-20T22:06:07.265Z,0.14
2018-12-20T22:10:10.772Z,0.11
2018-12-20T22:14:14.265Z,0.06
2018-12-20T22:18:17.788Z,0.04
2018-12-20T22:22:21.574Z,-0.02
2018-12-20T22:26:25.165Z,-0.08
2018-12-20T22:30:28.720Z,-0.07
2018-12-20T22:34:32.230Z,-0.11
2018-12-20T22:38:35.913Z,-0.20
2018-12-20T22:42:39.772Z,-0.27
2018-12-20T22:46:43.296Z,-0.34
2018-12-20T22:50:46.807Z,-0.35
2018-12-20T22:54:50.279Z,-0.40
2018-12-20T22:58:53.791Z,-0.43
2018-12-20T23:02:57.303Z,-0.42
2018-12-20T23:07:00.818Z,-0.45
2018-12-20T23:11:04.340Z,-0.43
2018-12-20T23:15:07.873Z,-0.37
2018-12-20T23:19:11.344Z,-0.36
2018-12-20T23:23:14.820Z,-0.42
2018-12-20T23:27:18.329Z,-0.45
2018-12-20T23:31:21.796Z,-0.47
2018-12-20T23:35:25.365Z,-0.50
2018-12-20T23:39:28.960Z,-0.48
2018-12-20T23:43:32.502Z,-0.39
2018-12-20T23:47:36.111Z,-0.34
2018-12-20T23:51:45.271Z,-0.33
2018-12-20T23:55:45.747Z,-0.27
2018-12-20T23:59:49.286Z,-0.19
